Time;durP1;ratioP1;P1;durP2;ratioP2;P2;SDS_P1;SDS_P2;PMS_P1;PMS_P2;Temp;Humidity;BMP_temperature;BMP_pressure;BME280_temperature;BME280_humidity;BME280_pressure;Samples;Min_cycle;Max_cycle;Signal;HPM_P1;HPM_P2
2021/07/07 00:01:05;;;;;;;;;;;17.00;99.90;;;;;;8326078;28;19955;-66
2021/07/07 00:05:07;;;;;;;;;;;17.10;99.90;;;;;;8325537;28;19905;-66
2021/07/07 00:09:07;;;;;;;;;;;17.00;99.90;;;;;;8325061;28;20372;-67
2021/07/07 00:13:08;;;;;;;;;;;16.80;99.90;;;;;;8341036;28;19913;-67
2021/07/07 00:17:08;;;;;;;;;;;16.80;99.90;;;;;;8330300;28;19909;-67
2021/07/07 00:21:09;;;;;;;;;;;17.00;99.90;;;;;;8332526;28;19912;-67
2021/07/07 00:25:10;;;;;;;;;;;17.00;99.90;;;;;;8332136;28;20294;-66
2021/07/07 00:29:11;;;;;;;;;;;16.90;99.90;;;;;;8331822;28;20372;-66
2021/07/07 00:33:11;;;;;;;;;;;16.90;99.90;;;;;;8332026;28;19928;-67
2021/07/07 00:37:12;;;;;;;;;;;16.90;99.90;;;;;;8331820;28;19995;-67
2021/07/07 00:41:13;;;;;;;;;;;16.90;99.90;;;;;;8330715;28;19912;-66
2021/07/07 00:45:15;;;;;;;;;;;16.90;99.90;;;;;;8331386;28;20000;-66
2021/07/07 00:49:16;;;;;;;;;;;16.80;99.90;;;;;;8331104;28;19909;-67
2021/07/07 00:53:17;;;;;;;;;;;16.70;99.90;;;;;;8320795;28;19913;-66
2021/07/07 00:57:18;;;;;;;;;;;17.00;99.90;;;;;;8320127;28;19905;-67
2021/07/07 01:01:19;;;;;;;;;;;17.20;99.90;;;;;;8331433;28;19909;-66
2021/07/07 01:05:19;;;;;;;;;;;17.00;99.90;;;;;;8331329;28;20359;-66
2021/07/07 01:09:20;;;;;;;;;;;16.90;99.90;;;;;;8330909;28;20043;-66
2021/07/07 01:13:20;;;;;;;;;;;16.80;99.90;;;;;;8331217;28;20437;-66
2021/07/07 01:17:23;;;;;;;;;;;16.60;99.90;;;;;;8331036;28;19905;-67
2021/07/07 01:21:24;;;;;;;;;;;16.50;99.90;;;;;;8330905;28;20382;-67
2021/07/07 01:25:26;;;;;;;;;;;16.50;99.90;;;;;;8329887;28;19909;-66
2021/07/07 01:29:26;;;;;;;;;;;16.40;99.90;;;;;;8328578;28;19983;-66
2021/07/07 01:33:27;;;;;;;;;;;16.40;99.90;;;;;;8330275;28;19916;-66
2021/07/07 01:37:29;;;;;;;;;;;16.40;99.90;;;;;;8330027;28;20315;-66
2021/07/07 01:41:29;;;;;;;;;;;16.40;99.90;;;;;;8330071;28;19909;-66
2021/07/07 01:45:30;;;;;;;;;;;16.50;99.90;;;;;;8329720;28;19935;-66
2021/07/07 01:49:30;;;;;;;;;;;16.50;99.90;;;;;;8329472;28;19909;-66
2021/07/07 01:53:31;;;;;;;;;;;16.40;99.90;;;;;;8329321;28;19904;-66
2021/07/07 01:57:43;;;;;;;;;;;16.50;99.90;;;;;;8329276;28;19905;-66
2021/07/07 02:01:43;;;;;;;;;;;16.60;99.90;;;;;;8329543;28;19934;-66
2021/07/07 02:05:44;;;;;;;;;;;16.60;99.90;;;;;;8327798;28;19924;-66
2021/07/07 02:09:44;;;;;;;;;;;16.50;99.90;;;;;;8328811;28;19952;-67
2021/07/07 02:13:45;;;;;;;;;;;16.40;99.90;;;;;;8329028;28;19905;-66
2021/07/07 02:17:46;;;;;;;;;;;16.40;99.90;;;;;;8327931;28;20357;-67
2021/07/07 02:21:47;;;;;;;;;;;16.40;99.90;;;;;;8327953;28;19909;-66
2021/07/07 02:25:47;;;;;;;;;;;16.30;99.90;;;;;;8328725;28;19905;-66
2021/07/07 02:29:48;;;;;;;;;;;16.40;99.90;;;;;;8328256;28;20002;-67
2021/07/07 02:33:48;;;;;;;;;;;16.40;99.90;;;;;;8343859;28;19909;-66
2021/07/07 02:37:50;;;;;;;;;;;16.60;99.90;;;;;;8328048;28;19909;-66
2021/07/07 02:41:52;;;;;;;;;;;16.60;99.90;;;;;;8327341;28;20512;-66
2021/07/07 02:45:52;;;;;;;;;;;16.40;99.90;;;;;;8328124;28;19916;-67
2021/07/07 02:49:53;;;;;;;;;;;16.10;99.90;;;;;;8328017;28;19971;-66
2021/07/07 02:53:53;;;;;;;;;;;16.10;99.90;;;;;;8327634;28;19912;-66
2021/07/07 02:58:02;;;;;;;;;;;16.30;99.90;;;;;;8327483;28;19912;-66
2021/07/07 03:02:02;;;;;;;;;;;16.40;99.90;;;;;;8327767;28;20288;-67
2021/07/07 03:06:03;;;;;;;;;;;16.30;99.90;;;;;;8327166;28;19905;-67
2021/07/07 03:10:04;;;;;;;;;;;16.30;99.90;;;;;;8327224;28;19916;-66
2021/07/07 03:14:05;;;;;;;;;;;16.40;99.90;;;;;;8326998;28;19905;-66
2021/07/07 03:18:06;;;;;;;;;;;16.40;99.90;;;;;;8326905;28;19912;-66
2021/07/07 03:22:07;;;;;;;;;;;16.30;99.90;;;;;;8327007;28;19999;-66
2021/07/07 03:26:07;;;;;;;;;;;16.10;99.90;;;;;;8326712;28;19905;-66
2021/07/07 03:30:08;;;;;;;;;;;16.20;99.90;;;;;;8327049;28;19909;-67
2021/07/07 03:34:08;;;;;;;;;;;16.40;99.90;;;;;;8345659;28;19908;-66
2021/07/07 03:38:09;;;;;;;;;;;16.40;99.90;;;;;;8326220;28;19905;-66
2021/07/07 03:42:09;;;;;;;;;;;16.40;99.90;;;;;;8343686;28;20540;-66
2021/07/07 03:46:10;;;;;;;;;;;16.40;99.90;;;;;;8337400;28;20367;-67
2021/07/07 03:50:11;;;;;;;;;;;16.20;99.90;;;;;;8321040;28;20015;-66
2021/07/07 03:54:11;;;;;;;;;;;16.00;99.90;;;;;;8322437;28;19959;-67
2021/07/07 03:58:12;;;;;;;;;;;15.90;99.90;;;;;;8351079;28;19913;-67
2021/07/07 04:02:13;;;;;;;;;;;15.90;99.90;;;;;;8358565;28;19935;-66
2021/07/07 04:06:14;;;;;;;;;;;15.90;99.90;;;;;;8327639;28;20440;-67
2021/07/07 04:10:15;;;;;;;;;;;15.90;99.90;;;;;;8325290;28;19912;-67
2021/07/07 04:14:22;;;;;;;;;;;15.90;99.90;;;;;;8325460;28;20004;-66
2021/07/07 04:18:23;;;;;;;;;;;16.00;99.90;;;;;;8324129;28;19995;-66
2021/07/07 04:22:23;;;;;;;;;;;16.10;99.90;;;;;;8324488;28;19905;-66
2021/07/07 04:26:24;;;;;;;;;;;16.30;99.90;;;;;;8342464;28;19967;-66
2021/07/07 04:30:24;;;;;;;;;;;16.30;99.90;;;;;;8346809;28;19912;-68
2021/07/07 04:34:25;;;;;;;;;;;16.30;99.90;;;;;;8357691;28;19905;-68
2021/07/07 04:38:25;;;;;;;;;;;16.40;99.90;;;;;;8346799;28;19967;-68
2021/07/07 04:42:26;;;;;;;;;;;16.60;99.90;;;;;;8340840;28;19932;-67
2021/07/07 04:46:26;;;;;;;;;;;16.60;99.90;;;;;;8331137;28;19971;-68
2021/07/07 04:50:27;;;;;;;;;;;16.70;99.90;;;;;;8319009;28;19924;-68
2021/07/07 04:54:28;;;;;;;;;;;16.60;99.90;;;;;;8321705;28;19991;-62
2021/07/07 04:58:28;;;;;;;;;;;16.30;99.90;;;;;;8356916;28;20401;-62
2021/07/07 05:02:29;;;;;;;;;;;16.20;99.90;;;;;;8349828;28;19917;-62
2021/07/07 05:06:29;;;;;;;;;;;16.40;99.90;;;;;;8330707;28;19917;-61
2021/07/07 05:10:31;;;;;;;;;;;16.60;99.90;;;;;;8330712;28;20371;-63
2021/07/07 05:14:33;;;;;;;;;;;16.70;99.90;;;;;;8330470;28;19909;-62
2021/07/07 05:18:34;;;;;;;;;;;16.50;99.90;;;;;;8337423;28;19920;-62
2021/07/07 05:22:34;;;;;;;;;;;16.60;99.90;;;;;;8341590;28;20363;-62
2021/07/07 05:26:35;;;;;;;;;;;16.60;99.90;;;;;;8329874;28;19905;-62
2021/07/07 05:30:36;;;;;;;;;;;16.60;99.90;;;;;;8328650;28;20433;-64
2021/07/07 05:34:38;;;;;;;;;;;16.70;99.90;;;;;;8329836;28;19905;-63
2021/07/07 05:38:39;;;;;;;;;;;16.60;99.90;;;;;;8329560;28;19913;-62
2021/07/07 05:42:39;;;;;;;;;;;16.70;99.90;;;;;;8335043;28;20003;-63
2021/07/07 05:46:40;;;;;;;;;;;16.80;99.90;;;;;;8344385;28;19920;-62
2021/07/07 05:50:40;;;;;;;;;;;17.10;99.90;;;;;;8348174;28;19974;-62
2021/07/07 05:54:41;;;;;;;;;;;17.10;99.90;;;;;;8340736;28;19913;-63
2021/07/07 05:58:41;;;;;;;;;;;16.80;99.90;;;;;;8340284;28;19983;-63
2021/07/07 06:02:43;;;;;;;;;;;16.70;99.90;;;;;;8343418;28;19905;-62
2021/07/07 06:06:43;;;;;;;;;;;16.90;99.90;;;;;;8345114;28;19908;-63
2021/07/07 06:10:45;;;;;;;;;;;16.80;99.90;;;;;;8345303;28;19923;-63
2021/07/07 06:14:46;;;;;;;;;;;16.80;99.90;;;;;;8330580;28;19960;-63
2021/07/07 06:18:47;;;;;;;;;;;16.80;99.90;;;;;;8339218;28;19916;-63
2021/07/07 06:22:47;;;;;;;;;;;17.10;99.90;;;;;;8346031;28;19909;-63
2021/07/07 06:26:48;;;;;;;;;;;17.10;99.90;;;;;;8340559;28;19909;-63
2021/07/07 06:30:48;;;;;;;;;;;16.90;99.90;;;;;;8331362;28;19920;-64
2021/07/07 06:34:49;;;;;;;;;;;17.00;99.90;;;;;;8349287;28;19908;-63
2021/07/07 06:38:49;;;;;;;;;;;17.00;99.90;;;;;;8330997;28;20393;-63
2021/07/07 06:42:49;;;;;;;;;;;17.20;99.90;;;;;;8343582;28;19908;-62
2021/07/07 06:46:50;;;;;;;;;;;17.20;99.90;;;;;;8343708;28;19918;-63
2021/07/07 06:50:50;;;;;;;;;;;17.50;99.90;;;;;;8352881;28;19912;-63
2021/07/07 06:54:51;;;;;;;;;;;17.70;99.90;;;;;;8336438;28;19940;-63
2021/07/07 06:58:52;;;;;;;;;;;17.80;99.90;;;;;;8326978;28;20094;-63
2021/07/07 07:02:52;;;;;;;;;;;18.00;99.90;;;;;;8327383;28;19905;-63
2021/07/07 07:06:53;;;;;;;;;;;18.00;99.90;;;;;;8335281;28;19908;-63
2021/07/07 07:10:53;;;;;;;;;;;17.70;99.90;;;;;;8339798;28;19913;-63
2021/07/07 07:14:55;;;;;;;;;;;17.60;99.90;;;;;;8328663;28;19970;-63
2021/07/07 07:18:56;;;;;;;;;;;17.80;99.90;;;;;;8351086;28;19908;-64
2021/07/07 07:22:57;;;;;;;;;;;17.80;99.90;;;;;;8334492;28;19963;-63
2021/07/07 07:26:58;;;;;;;;;;;17.90;99.90;;;;;;8336849;28;19948;-63
2021/07/07 07:30:59;;;;;;;;;;;17.90;99.90;;;;;;8337613;28;19921;-62
2021/07/07 07:34:59;;;;;;;;;;;18.10;99.90;;;;;;8327045;28;19947;-63
2021/07/07 07:39:01;;;;;;;;;;;18.30;99.90;;;;;;8327761;28;19916;-62
2021/07/07 07:43:03;;;;;;;;;;;18.10;99.90;;;;;;8325614;28;19963;-64
2021/07/07 07:47:04;;;;;;;;;;;18.10;99.90;;;;;;8324404;28;20051;-64
2021/07/07 07:51:04;;;;;;;;;;;18.10;99.90;;;;;;8324740;28;20268;-64
2021/07/07 07:55:05;;;;;;;;;;;18.00;99.90;;;;;;8339617;28;19928;-64
2021/07/07 07:59:06;;;;;;;;;;;17.90;99.90;;;;;;8332395;28;19915;-62
2021/07/07 08:03:06;;;;;;;;;;;18.00;99.90;;;;;;8339710;28;19909;-62
2021/07/07 08:07:07;;;;;;;;;;;18.30;99.90;;;;;;8346278;28;19967;-63
2021/07/07 08:11:07;;;;;;;;;;;18.40;99.90;;;;;;8342883;28;19912;-63
2021/07/07 08:15:09;;;;;;;;;;;18.50;99.90;;;;;;8358112;28;19954;-62
2021/07/07 08:19:09;;;;;;;;;;;18.40;99.90;;;;;;8339702;28;19967;-63
2021/07/07 08:23:10;;;;;;;;;;;18.30;99.90;;;;;;8345320;28;19909;-63
2021/07/07 08:27:11;;;;;;;;;;;18.10;99.90;;;;;;8326616;28;20460;-62
2021/07/07 08:31:12;;;;;;;;;;;18.20;99.90;;;;;;8350453;28;20413;-63
2021/07/07 08:35:12;;;;;;;;;;;18.30;99.90;;;;;;8339929;28;19917;-64
2021/07/07 08:39:13;;;;;;;;;;;18.30;99.90;;;;;;8344260;28;19905;-63
2021/07/07 08:43:13;;;;;;;;;;;18.40;99.90;;;;;;8356103;28;20393;-62
2021/07/07 08:47:14;;;;;;;;;;;18.40;99.90;;;;;;8358429;28;19932;-63
2021/07/07 08:51:15;;;;;;;;;;;18.60;99.90;;;;;;8345083;28;20049;-63
2021/07/07 08:55:17;;;;;;;;;;;18.80;99.90;;;;;;8347636;28;19992;-63
2021/07/07 08:59:18;;;;;;;;;;;18.90;99.90;;;;;;8356409;28;19904;-63
2021/07/07 09:03:18;;;;;;;;;;;18.80;99.90;;;;;;8352374;28;19913;-62
2021/07/07 09:07:23;;;;;;;;;;;18.80;99.90;;;;;;8344474;28;19909;-64
2021/07/07 09:11:27;;;;;;;;;;;18.70;99.90;;;;;;8342247;28;20310;-63
2021/07/07 09:15:30;;;;;;;;;;;18.60;99.90;;;;;;8332919;28;19913;-63
2021/07/07 09:19:32;;;;;;;;;;;18.50;99.90;;;;;;8334873;28;19909;-64
2021/07/07 09:23:33;;;;;;;;;;;18.50;99.90;;;;;;8350113;28;19905;-62
2021/07/07 09:27:37;;;;;;;;;;;18.60;99.90;;;;;;8342723;28;19963;-62
2021/07/07 09:31:38;;;;;;;;;;;18.60;99.90;;;;;;8345333;28;19909;-63
2021/07/07 09:35:41;;;;;;;;;;;18.60;99.90;;;;;;8347759;28;20059;-63
2021/07/07 09:39:42;;;;;;;;;;;18.60;99.90;;;;;;8354843;28;19955;-63
2021/07/07 09:43:50;;;;;;;;;;;18.70;99.90;;;;;;8329325;28;20438;-62
2021/07/07 09:47:50;;;;;;;;;;;18.70;99.90;;;;;;8333172;28;20018;-63
2021/07/07 09:51:51;;;;;;;;;;;18.80;99.90;;;;;;8326629;28;19913;-63
2021/07/07 09:55:51;;;;;;;;;;;19.00;99.90;;;;;;8326035;28;20362;-62
2021/07/07 09:59:52;;;;;;;;;;;19.20;99.90;;;;;;8320472;23;20028;-63
2021/07/07 10:03:52;;;;;;;;;;;19.10;99.90;;;;;;8265845;28;19978;-67
2021/07/07 10:07:53;;;;;;;;;;;19.30;99.90;;;;;;8289173;28;19913;-67
2021/07/07 10:11:54;;;;;;;;;;;19.30;99.90;;;;;;8291585;28;19910;-67
2021/07/07 10:15:54;;;;;;;;;;;19.10;99.90;;;;;;8289871;28;19912;-66
2021/07/07 10:19:55;;;;;;;;;;;18.90;99.90;;;;;;8257318;28;19909;-66
2021/07/07 10:23:56;;;;;;;;;;;18.90;99.90;;;;;;8255025;28;20020;-65
2021/07/07 10:28:01;;;;;;;;;;;18.90;99.90;;;;;;8256700;28;20390;-66
2021/07/07 10:32:05;;;;;;;;;;;19.00;99.90;;;;;;8244566;28;19914;-67
2021/07/07 10:36:13;;;;;;;;;;;19.20;99.90;;;;;;8256978;28;20018;-66
2021/07/07 10:40:24;;;;;;;;;;;19.20;99.90;;;;;;8257235;28;19909;-65
2021/07/07 10:44:25;;;;;;;;;;;19.10;99.90;;;;;;8263729;28;20299;-66
2021/07/07 10:48:29;;;;;;;;;;;19.00;99.90;;;;;;8246662;28;19952;-65
2021/07/07 10:52:30;;;;;;;;;;;18.90;99.90;;;;;;8255087;28;19996;-65
2021/07/07 10:56:44;;;;;;;;;;;19.00;99.90;;;;;;8258366;28;19921;-66
2021/07/07 11:00:45;;;;;;;;;;;18.80;99.90;;;;;;8232081;28;19970;-66
2021/07/07 11:04:49;;;;;;;;;;;18.90;99.90;;;;;;8241637;28;20622;-66
2021/07/07 11:08:50;;;;;;;;;;;19.00;99.90;;;;;;8240844;28;20541;-66
2021/07/07 11:12:55;;;;;;;;;;;19.20;99.90;;;;;;8239639;28;20016;-66
2021/07/07 11:16:57;;;;;;;;;;;19.50;99.90;;;;;;8251747;28;19924;-65
2021/07/07 11:21:01;;;;;;;;;;;19.60;99.90;;;;;;8251556;28;19910;-65
2021/07/07 11:25:04;;;;;;;;;;;19.50;99.90;;;;;;8242316;28;19914;-66
2021/07/07 11:29:05;;;;;;;;;;;19.50;99.90;;;;;;8242281;28;20027;-66
2021/07/07 11:33:06;;;;;;;;;;;19.50;99.90;;;;;;8243582;28;19909;-66
2021/07/07 11:37:06;;;;;;;;;;;19.40;99.90;;;;;;8247757;28;19910;-65
2021/07/07 11:41:12;;;;;;;;;;;19.60;99.90;;;;;;8247052;28;19948;-65
2021/07/07 11:45:13;;;;;;;;;;;19.50;99.90;;;;;;8256555;28;20385;-66
2021/07/07 11:49:14;;;;;;;;;;;19.60;99.90;;;;;;8231295;28;19914;-66
2021/07/07 11:53:15;;;;;;;;;;;19.80;99.90;;;;;;8234427;28;19948;-66
2021/07/07 11:57:16;;;;;;;;;;;19.80;99.90;;;;;;8255659;28;19960;-67
2021/07/07 12:01:17;;;;;;;;;;;19.60;99.90;;;;;;8256354;28;20319;-65
2021/07/07 12:05:18;;;;;;;;;;;19.50;99.90;;;;;;8242689;28;19917;-65
2021/07/07 12:09:20;;;;;;;;;;;19.60;99.90;;;;;;8250003;28;19917;-66
2021/07/07 12:13:25;;;;;;;;;;;19.70;99.90;;;;;;8243729;28;19910;-65
2021/07/07 12:17:26;;;;;;;;;;;19.60;99.90;;;;;;8238142;28;19918;-65
2021/07/07 12:21:26;;;;;;;;;;;19.70;99.90;;;;;;8234378;28;19914;-66
2021/07/07 12:25:27;;;;;;;;;;;19.80;99.90;;;;;;8244886;28;19909;-66
2021/07/07 12:29:29;;;;;;;;;;;19.70;99.90;;;;;;8233593;28;20410;-66
2021/07/07 12:33:30;;;;;;;;;;;19.60;99.90;;;;;;8241075;28;19910;-66
2021/07/07 12:37:32;;;;;;;;;;;19.50;99.90;;;;;;8237941;28;19917;-64
2021/07/07 12:41:32;;;;;;;;;;;19.60;99.90;;;;;;8242775;28;19909;-67
2021/07/07 12:45:33;;;;;;;;;;;19.50;99.90;;;;;;8245268;28;19956;-67
2021/07/07 12:49:37;;;;;;;;;;;19.70;99.90;;;;;;8239904;28;19914;-66
2021/07/07 12:53:44;;;;;;;;;;;19.80;99.90;;;;;;8248853;28;19916;-67
2021/07/07 12:57:45;;;;;;;;;;;19.90;99.90;;;;;;8238949;28;19910;-65
2021/07/07 13:01:45;;;;;;;;;;;20.00;99.90;;;;;;8230618;28;19914;-66
2021/07/07 13:05:54;;;;;;;;;;;19.80;99.90;;;;;;8239908;28;19909;-66
2021/07/07 13:09:55;;;;;;;;;;;19.90;99.90;;;;;;8253387;28;19917;-66
2021/07/07 13:13:58;;;;;;;;;;;19.80;99.90;;;;;;8248620;28;19929;-65
2021/07/07 13:17:59;;;;;;;;;;;19.80;99.90;;;;;;8247176;28;20016;-66
2021/07/07 13:22:01;;;;;;;;;;;19.80;99.90;;;;;;8237578;28;19924;-65
2021/07/07 13:26:20;;;;;;;;;;;19.90;99.90;;;;;;8242731;28;19918;-65
2021/07/07 13:30:28;;;;;;;;;;;19.90;99.90;;;;;;8247862;28;19966;-64
2021/07/07 13:34:29;;;;;;;;;;;19.70;99.90;;;;;;8254944;28;19910;-71
2021/07/07 13:38:30;;;;;;;;;;;19.40;99.90;;;;;;8237972;28;19910;-68
2021/07/07 13:42:31;;;;;;;;;;;19.10;99.90;;;;;;8231666;28;19909;-67
2021/07/07 13:46:32;;;;;;;;;;;19.10;99.90;;;;;;8239748;28;19918;-70
2021/07/07 13:50:33;;;;;;;;;;;19.10;99.90;;;;;;8229739;28;20303;-70
2021/07/07 13:54:34;;;;;;;;;;;19.00;99.90;;;;;;8233397;28;19910;-66
2021/07/07 13:58:34;;;;;;;;;;;18.90;99.90;;;;;;8238453;28;19975;-67
2021/07/07 14:02:35;;;;;;;;;;;19.00;99.90;;;;;;8238923;28;19906;-65
2021/07/07 14:06:36;;;;;;;;;;;19.00;99.90;;;;;;8253244;28;20291;-66
2021/07/07 14:10:36;;;;;;;;;;;18.90;99.90;;;;;;8253010;28;19914;-66
2021/07/07 14:14:38;;;;;;;;;;;19.00;99.90;;;;;;8249095;28;19917;-67
2021/07/07 14:18:38;;;;;;;;;;;19.10;99.90;;;;;;8254392;28;19955;-66
2021/07/07 14:22:41;;;;;;;;;;;18.90;99.90;;;;;;8255506;28;20295;-68
2021/07/07 14:26:42;;;;;;;;;;;18.70;99.90;;;;;;8255416;28;19947;-67
2021/07/07 14:30:42;;;;;;;;;;;18.60;99.90;;;;;;8252893;28;19967;-66
2021/07/07 14:34:43;;;;;;;;;;;18.70;99.90;;;;;;8252054;28;19910;-67
2021/07/07 14:38:45;;;;;;;;;;;18.90;99.90;;;;;;8250059;28;19925;-67
2021/07/07 14:42:46;;;;;;;;;;;19.30;99.90;;;;;;8251727;28;19910;-68
2021/07/07 14:46:46;;;;;;;;;;;19.50;99.90;;;;;;8257077;28;19910;-67
2021/07/07 14:50:47;;;;;;;;;;;19.50;99.90;;;;;;8255948;28;19925;-66
2021/07/07 14:54:48;;;;;;;;;;;19.60;99.90;;;;;;8254977;28;20510;-66
2021/07/07 14:58:48;;;;;;;;;;;19.70;99.90;;;;;;8252196;28;19917;-66
2021/07/07 15:02:49;;;;;;;;;;;19.40;99.90;;;;;;8249178;28;20505;-66
2021/07/07 15:06:49;;;;;;;;;;;19.40;99.90;;;;;;8242899;28;19949;-67
2021/07/07 15:10:50;;;;;;;;;;;19.60;99.90;;;;;;8249373;28;19922;-66
2021/07/07 15:14:50;;;;;;;;;;;19.80;99.90;;;;;;8237621;28;19971;-66
2021/07/07 15:18:51;;;;;;;;;;;20.20;99.90;;;;;;8238423;28;19926;-66
2021/07/07 15:22:51;;;;;;;;;;;20.40;99.90;;;;;;8241427;28;19945;-66
2021/07/07 15:26:52;;;;;;;;;;;20.70;99.90;;;;;;8240737;28;19941;-66
2021/07/07 15:30:52;;;;;;;;;;;20.80;99.90;;;;;;8243981;28;19913;-67
2021/07/07 15:34:53;;;;;;;;;;;20.80;99.90;;;;;;8239548;28;19919;-66
2021/07/07 15:38:54;;;;;;;;;;;20.60;99.90;;;;;;8233743;28;20412;-67
2021/07/07 15:42:56;;;;;;;;;;;20.80;99.90;;;;;;8243184;28;19953;-70
2021/07/07 15:46:56;;;;;;;;;;;21.00;99.90;;;;;;8247807;28;19914;-70
2021/07/07 15:50:57;;;;;;;;;;;21.10;99.90;;;;;;8245299;28;20298;-69
2021/07/07 15:54:57;;;;;;;;;;;20.90;99.90;;;;;;8250082;28;20438;-68
2021/07/07 15:58:58;;;;;;;;;;;20.90;99.90;;;;;;8279805;22;19922;-75
2021/07/07 16:02:58;;;;;;;;;;;20.90;99.90;;;;;;8208349;28;19989;-75
2021/07/07 16:06:59;;;;;;;;;;;20.90;99.90;;;;;;8293010;28;20376;-75
2021/07/07 16:10:59;;;;;;;;;;;21.10;99.90;;;;;;8290188;28;19913;-74
2021/07/07 16:15:00;;;;;;;;;;;21.40;99.90;;;;;;8222974;28;19911;-75
2021/07/07 16:19:01;;;;;;;;;;;21.90;99.90;;;;;;8285525;28;20012;-78
2021/07/07 16:23:01;;;;;;;;;;;22.10;99.90;;;;;;8287408;28;20261;-77
2021/07/07 16:27:02;;;;;;;;;;;24.30;99.90;;;;;;8281964;28;20312;-78
2021/07/07 16:31:02;;;;;;;;;;;27.80;99.90;;;;;;8289745;28;20004;-78
2021/07/07 16:35:04;;;;;;;;;;;31.20;99.90;;;;;;8217426;28;19910;-78
2021/07/07 16:39:05;;;;;;;;;;;33.80;96.60;;;;;;8220595;28;19921;-76
2021/07/07 16:43:06;;;;;;;;;;;35.60;86.00;;;;;;8288612;28;19910;-75
2021/07/07 16:47:06;;;;;;;;;;;34.60;78.70;;;;;;8221450;28;19975;-76
2021/07/07 16:51:07;;;;;;;;;;;35.90;74.40;;;;;;8286933;28;20001;-74
2021/07/07 16:55:10;;;;;;;;;;;36.20;69.40;;;;;;8219909;28;19918;-76
2021/07/07 16:59:10;;;;;;;;;;;35.80;68.00;;;;;;8284572;28;19983;-70
2021/07/07 17:03:11;;;;;;;;;;;37.30;65.20;;;;;;8280220;28;19914;-65
2021/07/07 17:07:11;;;;;;;;;;;38.60;59.30;;;;;;8222486;28;19919;-65
2021/07/07 17:11:12;;;;;;;;;;;37.20;60.10;;;;;;8214773;28;19911;-64
2021/07/07 17:15:13;;;;;;;;;;;34.40;66.50;;;;;;8200880;28;19910;-64
2021/07/07 17:19:14;;;;;;;;;;;31.10;76.50;;;;;;8214937;28;19967;-65
2021/07/07 17:23:16;;;;;;;;;;;28.70;87.00;;;;;;8271683;28;19906;-65
2021/07/07 17:27:17;;;;;;;;;;;26.90;94.30;;;;;;8293697;28;20330;-65
2021/07/07 17:31:17;;;;;;;;;;;25.70;99.70;;;;;;8193021;28;19910;-63
2021/07/07 17:35:18;;;;;;;;;;;24.80;99.90;;;;;;8214010;28;20495;-64
2021/07/07 17:39:18;;;;;;;;;;;24.50;99.90;;;;;;8227015;28;19910;-64
2021/07/07 17:43:19;;;;;;;;;;;24.50;99.90;;;;;;8222273;28;19914;-63
2021/07/07 17:47:20;;;;;;;;;;;24.20;99.90;;;;;;8221335;28;19946;-64
2021/07/07 17:51:20;;;;;;;;;;;24.70;99.90;;;;;;8212831;28;19917;-64
2021/07/07 17:55:21;;;;;;;;;;;24.60;99.90;;;;;;8221471;28;19910;-64
2021/07/07 17:59:21;;;;;;;;;;;23.60;99.90;;;;;;8219018;28;20291;-64
2021/07/07 18:03:22;;;;;;;;;;;23.60;99.90;;;;;;8223080;28;19964;-64
2021/07/07 18:07:22;;;;;;;;;;;24.70;99.90;;;;;;8224144;28;19941;-65
2021/07/07 18:11:23;;;;;;;;;;;24.10;99.90;;;;;;8223740;28;19936;-64
2021/07/07 18:15:24;;;;;;;;;;;23.20;99.90;;;;;;8225422;28;19914;-64
2021/07/07 18:19:24;;;;;;;;;;;22.60;99.90;;;;;;8224526;28;19918;-65
2021/07/07 18:23:25;;;;;;;;;;;22.10;99.90;;;;;;8220474;28;19969;-64
2021/07/07 18:27:26;;;;;;;;;;;21.50;99.90;;;;;;8221950;28;20342;-64
2021/07/07 18:31:26;;;;;;;;;;;20.80;99.90;;;;;;8293993;28;20010;-63
2021/07/07 18:35:29;;;;;;;;;;;20.50;99.90;;;;;;8200588;28;20595;-64
2021/07/07 18:39:30;;;;;;;;;;;20.40;99.90;;;;;;8294473;28;19917;-74
2021/07/07 18:43:30;;;;;;;;;;;20.20;99.90;;;;;;8282447;28;20006;-72
2021/07/07 18:47:31;;;;;;;;;;;19.90;99.90;;;;;;8277034;28;19914;-70
2021/07/07 18:51:31;;;;;;;;;;;19.70;99.90;;;;;;8212202;28;19921;-70
2021/07/07 18:55:32;;;;;;;;;;;19.60;99.90;;;;;;8205694;28;19910;-72
2021/07/07 18:59:33;;;;;;;;;;;19.50;99.90;;;;;;8275910;28;20005;-70
2021/07/07 19:03:33;;;;;;;;;;;19.30;99.90;;;;;;8207389;28;19929;-71
2021/07/07 19:07:35;;;;;;;;;;;19.00;99.90;;;;;;8204863;28;20388;-71
2021/07/07 19:11:36;;;;;;;;;;;18.80;99.90;;;;;;8206419;28;20412;-74
2021/07/07 19:15:37;;;;;;;;;;;18.60;99.90;;;;;;8198580;28;19975;-75
2021/07/07 19:19:38;;;;;;;;;;;18.50;99.90;;;;;;8275189;28;19918;-75
2021/07/07 19:23:38;;;;;;;;;;;18.30;99.90;;;;;;8275476;28;20411;-63
2021/07/07 19:27:40;;;;;;;;;;;18.20;99.90;;;;;;8202167;28;19964;-64
2021/07/07 19:31:42;;;;;;;;;;;18.30;99.90;;;;;;8203664;28;20009;-64
2021/07/07 19:35:42;;;;;;;;;;;18.60;99.90;;;;;;8260254;28;19918;-63
2021/07/07 19:39:43;;;;;;;;;;;18.80;99.90;;;;;;8195135;28;20013;-63
2021/07/07 19:43:44;;;;;;;;;;;18.90;99.90;;;;;;8203356;28;20379;-63
2021/07/07 19:47:45;;;;;;;;;;;18.70;99.90;;;;;;8205886;28;20376;-63
2021/07/07 19:51:46;;;;;;;;;;;18.50;99.90;;;;;;8196656;28;19914;-63
2021/07/07 19:55:46;;;;;;;;;;;18.50;99.90;;;;;;8211799;28;19953;-63
2021/07/07 19:59:47;;;;;;;;;;;18.60;99.90;;;;;;8207528;28;21260;-63
2021/07/07 20:03:47;;;;;;;;;;;18.30;99.90;;;;;;8209906;28;19918;-64
2021/07/07 20:07:48;;;;;;;;;;;18.10;99.90;;;;;;8206626;28;20013;-64
2021/07/07 20:11:48;;;;;;;;;;;18.20;99.90;;;;;;8280865;28;19914;-63
2021/07/07 20:15:49;;;;;;;;;;;17.90;99.90;;;;;;8216945;28;20390;-63
2021/07/07 20:19:49;;;;;;;;;;;17.70;99.90;;;;;;8211283;28;19921;-64
2021/07/07 20:23:50;;;;;;;;;;;18.00;99.90;;;;;;8211774;28;19910;-64
2021/07/07 20:27:51;;;;;;;;;;;18.00;99.90;;;;;;8189368;28;19968;-63
2021/07/07 20:31:51;;;;;;;;;;;17.80;99.90;;;;;;8193062;28;19921;-64
2021/07/07 20:35:52;;;;;;;;;;;17.50;99.90;;;;;;8286556;28;19921;-64
2021/07/07 20:39:52;;;;;;;;;;;17.80;99.90;;;;;;8221297;28;19914;-64
2021/07/07 20:43:53;;;;;;;;;;;17.70;99.90;;;;;;8203089;28;19910;-64
2021/07/07 20:47:53;;;;;;;;;;;17.90;99.90;;;;;;8292156;28;20014;-64
2021/07/07 20:51:54;;;;;;;;;;;18.00;99.90;;;;;;8292062;28;19914;-63
2021/07/07 20:55:54;;;;;;;;;;;18.10;99.90;;;;;;8284599;28;19996;-63
2021/07/07 20:59:55;;;;;;;;;;;18.20;99.90;;;;;;8211928;28;19975;-63
2021/07/07 21:03:55;;;;;;;;;;;17.80;99.90;;;;;;8204645;28;19957;-62
2021/07/07 21:07:56;;;;;;;;;;;17.70;99.90;;;;;;8223751;28;19913;-63
2021/07/07 21:11:56;;;;;;;;;;;17.50;99.90;;;;;;8225324;28;19934;-63
2021/07/07 21:15:57;;;;;;;;;;;17.30;99.90;;;;;;8285916;28;19911;-62
2021/07/07 21:19:57;;;;;;;;;;;17.20;99.90;;;;;;8285958;28;19921;-62
2021/07/07 21:23:58;;;;;;;;;;;17.20;99.90;;;;;;8224921;28;19910;-63
2021/07/07 21:28:01;;;;;;;;;;;17.10;99.90;;;;;;8227083;28;20288;-63
2021/07/07 21:32:04;;;;;;;;;;;17.10;99.90;;;;;;8225057;28;19975;-63
2021/07/07 21:36:04;;;;;;;;;;;17.10;99.90;;;;;;8221906;28;19925;-63
2021/07/07 21:40:06;;;;;;;;;;;17.10;99.90;;;;;;8210207;28;19914;-62
2021/07/07 21:44:06;;;;;;;;;;;17.10;99.90;;;;;;8276464;28;19917;-63
2021/07/07 21:48:07;;;;;;;;;;;17.10;99.90;;;;;;8220949;28;19949;-63
2021/07/07 21:52:07;;;;;;;;;;;17.10;99.90;;;;;;8225231;28;20451;-63
2021/07/07 21:56:08;;;;;;;;;;;17.20;99.90;;;;;;8226785;28;20515;-62
2021/07/07 22:00:10;;;;;;;;;;;17.20;99.90;;;;;;8247855;22;20384;-66
2021/07/07 22:04:11;;;;;;;;;;;17.20;99.90;;;;;;8226366;28;20434;-66
2021/07/07 22:08:11;;;;;;;;;;;17.30;99.90;;;;;;8293733;28;19917;-66
2021/07/07 22:12:13;;;;;;;;;;;17.20;99.90;;;;;;8227039;28;20022;-66
2021/07/07 22:16:14;;;;;;;;;;;17.20;99.90;;;;;;8211447;28;19998;-66
2021/07/07 22:20:15;;;;;;;;;;;17.30;99.90;;;;;;8192072;29;20269;-66
2021/07/07 22:24:15;;;;;;;;;;;17.10;99.90;;;;;;8212206;28;20364;-66
2021/07/07 22:28:16;;;;;;;;;;;17.00;99.90;;;;;;8225830;28;19979;-66
2021/07/07 22:32:18;;;;;;;;;;;17.10;99.90;;;;;;8226024;28;19913;-66
2021/07/07 22:36:19;;;;;;;;;;;17.10;99.90;;;;;;8293421;28;19906;-66
2021/07/07 22:40:19;;;;;;;;;;;17.10;99.90;;;;;;8225710;28;19930;-66
2021/07/07 22:44:20;;;;;;;;;;;17.10;99.90;;;;;;8225999;28;19906;-66
2021/07/07 22:48:21;;;;;;;;;;;17.20;99.90;;;;;;8225661;28;20372;-66
2021/07/07 22:52:21;;;;;;;;;;;17.00;99.90;;;;;;8225204;28;20441;-66
2021/07/07 22:56:22;;;;;;;;;;;16.90;99.90;;;;;;8225057;28;19906;-66
2021/07/07 23:00:22;;;;;;;;;;;16.80;99.90;;;;;;8225104;28;19921;-66
2021/07/07 23:04:23;;;;;;;;;;;16.90;99.90;;;;;;8225318;28;19910;-66
2021/07/07 23:08:26;;;;;;;;;;;17.10;99.90;;;;;;8225269;28;19913;-66
2021/07/07 23:12:26;;;;;;;;;;;16.90;99.90;;;;;;8291986;28;19929;-66
2021/07/07 23:16:27;;;;;;;;;;;17.00;99.90;;;;;;8290853;28;19912;-66
2021/07/07 23:20:27;;;;;;;;;;;17.10;99.90;;;;;;8225380;28;20257;-66